Crocketville, South Carolina
Current Conditions -  °F | °C
As of 3:35 AM on Sunday 21 Dec 2014 (Local Time) from KAQX Reporting Station
Overcast Overcast  
Wind Chill: 44°   Ceiling: 6000
Heat Index: 46°   Visibility: 7mi
Dew Point: 45°   Wind: 5mph
Humidity: 93%   Direction: NA
Pressure: 30.19"   Gusts: NA
Location:  32.92°N, 81.08°W
Report Text: KAQX 210835Z AUTO VRB04KT 7SM FEW007 OVC060 08/07 A3019 RMK AO2
Loading
Personal Weather Stations






























Interactive Weather Map New forecast layout! Learn more

10-Day Weather Forecast

Advertisements
Track Severe Weather on mobile